createdAt,value
2018-07-12T00:00:25.355Z,54.10
2018-07-12T00:02:51.946Z,55.27
2018-07-12T00:05:18.566Z,53.23
2018-07-12T00:07:45.118Z,55.83
2018-07-12T00:10:11.669Z,57.90
2018-07-12T00:12:38.170Z,57.27
2018-07-12T00:15:04.718Z,57.20
2018-07-12T00:17:31.198Z,53.00
2018-07-12T00:19:57.719Z,54.03
2018-07-12T00:22:24.213Z,53.33
2018-07-12T00:24:50.744Z,52.97
2018-07-12T00:27:17.229Z,54.50
2018-07-12T00:29:43.744Z,55.00
2018-07-12T00:32:10.232Z,51.17
2018-07-12T00:34:36.773Z,49.80
2018-07-12T00:37:03.255Z,51.53
2018-07-12T00:39:29.813Z,49.70
2018-07-12T00:41:56.794Z,50.20
2018-07-12T00:44:23.290Z,52.30
2018-07-12T00:46:49.799Z,54.03
2018-07-12T00:49:16.306Z,53.10
2018-07-12T00:51:42.897Z,52.07
2018-07-12T00:54:09.394Z,52.77
2018-07-12T00:56:35.969Z,52.90
2018-07-12T00:59:02.933Z,50.63
2018-07-12T01:01:29.959Z,52.70
2018-07-12T01:03:56.701Z,51.40
2018-07-12T01:06:23.206Z,52.07
2018-07-12T01:08:49.699Z,51.53
2018-07-12T01:11:16.230Z,51.07
2018-07-12T01:13:42.723Z,50.00
2018-07-12T01:16:09.269Z,50.70
2018-07-12T01:18:36.233Z,50.10
2018-07-12T01:21:02.741Z,52.97
2018-07-12T01:23:29.499Z,50.07
2018-07-12T01:25:56.481Z,54.87
2018-07-12T01:28:23.065Z,54.17
2018-07-12T01:30:49.587Z,55.67
2018-07-12T01:33:16.081Z,54.80
2018-07-12T01:35:42.678Z,54.20
2018-07-12T01:38:09.154Z,53.67
2018-07-12T01:40:35.836Z,51.60
2018-07-12T01:43:02.329Z,50.67
2018-07-12T01:45:28.849Z,46.40
2018-07-12T01:47:55.370Z,45.93
2018-07-12T01:50:22.325Z,45.67
2018-07-12T01:52:48.826Z,45.27
2018-07-12T01:55:15.300Z,44.77
2018-07-12T01:57:43.712Z,45.93
2018-07-12T02:00:10.450Z,47.50
2018-07-12T02:02:37.004Z,46.27
2018-07-12T02:05:03.516Z,47.47
2018-07-12T02:07:30.062Z,47.33
2018-07-12T02:09:56.541Z,47.77
2018-07-12T02:12:23.529Z,49.50
2018-07-12T02:14:50.022Z,47.53
2018-07-12T02:17:16.596Z,48.10
2018-07-12T02:19:43.090Z,48.30
2018-07-12T02:22:10.085Z,45.10
2018-07-12T02:24:36.609Z,45.43
2018-07-12T02:27:03.187Z,44.47
2018-07-12T02:29:29.670Z,45.20
2018-07-12T02:31:56.207Z,44.93
2018-07-12T02:34:22.728Z,45.47
2018-07-12T02:36:49.267Z,46.30
2018-07-12T02:39:15.821Z,43.47
2018-07-12T02:41:42.652Z,45.40
2018-07-12T02:44:09.217Z,44.87
2018-07-12T02:46:35.774Z,44.93
2018-07-12T02:49:02.727Z,44.57
2018-07-12T02:51:29.737Z,45.70
2018-07-12T02:53:56.479Z,46.60
2018-07-12T02:56:23.020Z,45.90
2018-07-12T02:58:49.557Z,47.60
2018-07-12T03:01:16.036Z,47.70
2018-07-12T03:03:42.561Z,45.97
2018-07-12T03:06:09.512Z,48.80
2018-07-12T03:08:36.034Z,50.67
2018-07-12T03:11:03.037Z,51.37
2018-07-12T03:13:29.702Z,49.67
2018-07-12T03:15:56.238Z,51.00
2018-07-12T03:18:23.203Z,47.77
2018-07-12T03:20:50.202Z,49.27
2018-07-12T03:23:16.702Z,48.80
2018-07-12T03:25:43.235Z,47.90
2018-07-12T03:28:09.771Z,46.50
2018-07-12T03:30:36.266Z,49.33
2018-07-12T03:33:02.909Z,47.93
2018-07-12T03:35:29.876Z,47.90
2018-07-12T03:37:56.430Z,47.50
2018-07-12T03:40:22.912Z,48.10
2018-07-12T03:42:49.453Z,49.53
2018-07-12T03:45:16.097Z,47.10
2018-07-12T03:47:43.248Z,45.10
2018-07-12T03:50:09.821Z,46.47
2018-07-12T03:52:36.348Z,48.00
2018-07-12T03:55:02.832Z,47.10
2018-07-12T03:57:29.383Z,46.17
2018-07-12T03:59:56.332Z,45.20
2018-07-12T04:02:23.324Z,45.00
2018-07-12T04:04:49.805Z,47.33
2018-07-12T04:07:16.339Z,48.07
2018-07-12T04:09:42.831Z,46.43
2018-07-12T04:12:09.353Z,47.00
2018-07-12T04:14:35.838Z,48.37
2018-07-12T04:17:02.370Z,47.80
2018-07-12T04:19:28.860Z,47.77
2018-07-12T04:21:55.385Z,45.10
2018-07-12T04:24:21.916Z,45.17
2018-07-12T04:26:48.465Z,43.67
2018-07-12T04:29:14.949Z,43.60
2018-07-12T04:31:41.496Z,40.53
2018-07-12T04:34:07.984Z,39.70
2018-07-12T04:36:34.477Z,39.30
2018-07-12T04:39:01.012Z,36.33
2018-07-12T04:41:27.493Z,33.47
2018-07-12T04:43:54.001Z,34.50
2018-07-12T04:46:20.494Z,31.90
2018-07-12T04:48:47.715Z,31.63
2018-07-12T04:51:14.266Z,31.13
2018-07-12T04:53:40.786Z,32.40
2018-07-12T04:56:07.332Z,32.47
2018-07-12T04:58:33.851Z,31.93
2018-07-12T05:01:00.372Z,32.70
2018-07-12T05:03:26.869Z,31.30
2018-07-12T05:05:53.866Z,31.43
2018-07-12T05:08:20.433Z,31.60
2018-07-12T05:10:46.965Z,28.57
2018-07-12T05:13:13.445Z,29.93
2018-07-12T05:15:39.988Z,29.93
2018-07-12T05:18:06.496Z,31.83
2018-07-12T05:20:33.107Z,30.93
2018-07-12T05:22:59.669Z,30.27
2018-07-12T05:25:26.170Z,31.90
2018-07-12T05:27:52.723Z,29.93
2018-07-12T05:30:19.805Z,27.30
2018-07-12T05:32:46.333Z,29.43
2018-07-12T05:35:12.816Z,27.90
2018-07-12T05:37:40.321Z,26.70
2018-07-12T05:40:07.869Z,25.87
2018-07-12T05:42:35.341Z,28.93
2018-07-12T05:45:02.963Z,25.30
2018-07-12T05:47:30.469Z,24.13
2018-07-12T05:49:57.997Z,24.73
2018-07-12T05:52:25.558Z,23.43
2018-07-12T05:54:53.108Z,23.03
2018-07-12T05:57:20.791Z,24.53
2018-07-12T05:59:48.523Z,22.37
2018-07-12T06:02:18.745Z,19.30
2018-07-12T06:04:46.670Z,18.80
2018-07-12T06:07:18.845Z,17.50
2018-07-12T06:09:46.812Z,17.50
2018-07-12T06:12:14.542Z,14.27
2018-07-12T06:14:42.074Z,14.17
2018-07-12T06:17:09.646Z,13.90
2018-07-12T06:19:37.190Z,13.07
2018-07-12T06:22:04.898Z,12.53
2018-07-12T06:24:32.494Z,12.47
2018-07-12T06:27:00.172Z,12.47
2018-07-12T06:29:27.768Z,11.83
2018-07-12T06:31:55.290Z,11.90
2018-07-12T06:34:22.930Z,11.17
2018-07-12T06:36:50.585Z,10.43
2018-07-12T06:39:18.271Z,10.83
2018-07-12T06:41:45.815Z,10.73
2018-07-12T06:44:13.360Z,10.60
2018-07-12T06:46:40.943Z,10.00
2018-07-12T06:49:08.505Z,10.33
2018-07-12T06:51:36.121Z,8.87
2018-07-12T06:54:03.761Z,9.20
2018-07-12T06:56:31.350Z,9.20
2018-07-12T06:58:58.904Z,9.10
2018-07-12T07:01:26.493Z,9.10
2018-07-12T07:03:54.256Z,8.37
2018-07-12T07:06:21.873Z,8.53
2018-07-12T07:08:49.390Z,8.60
2018-07-12T07:11:17.056Z,6.63
2018-07-12T07:13:44.661Z,6.47
2018-07-12T07:16:12.370Z,6.63
2018-07-12T07:18:39.924Z,6.80
2018-07-12T07:21:07.517Z,6.73
2018-07-12T07:23:35.086Z,6.80
2018-07-12T07:26:02.697Z,6.80
2018-07-12T07:28:30.294Z,6.60
2018-07-12T07:30:57.973Z,6.83
2018-07-12T07:33:25.546Z,5.80
2018-07-12T07:35:53.112Z,6.03
2018-07-12T07:38:20.630Z,6.40
2018-07-12T07:40:48.166Z,5.30
2018-07-12T07:43:15.785Z,6.77
2018-07-12T07:45:43.334Z,6.87
2018-07-12T07:48:10.919Z,6.60
2018-07-12T07:50:38.448Z,6.87
2018-07-12T07:53:06.048Z,6.37
2018-07-12T07:55:33.604Z,6.30
2018-07-12T07:58:01.206Z,6.70
2018-07-12T08:00:28.754Z,6.20
2018-07-12T08:02:56.367Z,5.93
2018-07-12T08:05:23.929Z,5.70
2018-07-12T08:07:52.146Z,6.20
2018-07-12T08:10:19.844Z,6.30
2018-07-12T08:12:47.397Z,5.87
2018-07-12T08:15:15.065Z,6.10
2018-07-12T08:17:42.982Z,5.90
2018-07-12T08:20:10.523Z,5.77
2018-07-12T08:22:38.098Z,5.87
2018-07-12T08:25:05.752Z,5.40
2018-07-12T08:27:33.349Z,5.27
2018-07-12T08:30:01.008Z,5.10
2018-07-12T08:32:28.495Z,4.77
2018-07-12T08:34:56.102Z,4.83
2018-07-12T08:37:23.760Z,5.00
2018-07-12T08:39:51.388Z,4.23
2018-07-12T08:42:19.003Z,4.60
2018-07-12T08:44:46.641Z,4.70
2018-07-12T08:47:14.180Z,4.37
2018-07-12T08:49:41.864Z,4.47
2018-07-12T08:52:09.462Z,5.70
2018-07-12T08:54:37.097Z,4.60
2018-07-12T08:57:04.729Z,4.20
2018-07-12T08:59:32.309Z,4.00
2018-07-12T09:01:59.898Z,4.20
2018-07-12T09:04:27.464Z,3.60
2018-07-12T09:06:54.982Z,4.27
2018-07-12T09:09:22.553Z,4.60
2018-07-12T09:11:54.822Z,3.83
2018-07-12T09:14:22.426Z,3.50
2018-07-12T09:16:50.172Z,3.30
2018-07-12T09:19:17.738Z,5.00
2018-07-12T09:21:45.325Z,3.20
2018-07-12T09:24:12.913Z,4.10
2018-07-12T09:26:40.469Z,3.53
2018-07-12T09:29:08.397Z,3.87
2018-07-12T09:31:35.995Z,3.73
2018-07-12T09:34:03.600Z,3.60
2018-07-12T09:36:31.271Z,3.70
2018-07-12T09:38:58.829Z,3.77
2018-07-12T09:41:26.436Z,4.00
2018-07-12T09:43:54.006Z,3.83
2018-07-12T09:46:21.630Z,3.53
2018-07-12T09:48:50.337Z,3.30
2018-07-12T09:51:17.889Z,4.00
2018-07-12T09:53:46.441Z,3.53
2018-07-12T09:56:14.962Z,3.20
2018-07-12T09:58:43.182Z,3.37
2018-07-12T10:01:16.551Z,3.50
2018-07-12T10:03:53.084Z,3.33
2018-07-12T10:06:31.386Z,4.00
2018-07-12T10:09:04.708Z,3.90
2018-07-12T10:11:37.968Z,3.90
2018-07-12T10:14:11.434Z,3.47
2018-07-12T10:16:44.384Z,4.10
2018-07-12T10:19:11.974Z,4.10
2018-07-12T10:21:39.488Z,3.37
2018-07-12T10:24:07.156Z,3.70
2018-07-12T10:26:34.725Z,3.60
2018-07-12T10:29:02.349Z,3.20
2018-07-12T10:31:29.923Z,3.80
2018-07-12T10:33:57.515Z,3.50
2018-07-12T10:36:25.074Z,2.93
2018-07-12T10:38:52.768Z,2.80
2018-07-12T10:41:20.350Z,3.23
2018-07-12T10:43:47.960Z,3.07
2018-07-12T10:46:16.073Z,4.10
2018-07-12T10:48:43.656Z,3.50
2018-07-12T10:51:11.245Z,3.20
2018-07-12T10:53:38.807Z,3.60
2018-07-12T10:56:06.443Z,3.30
2018-07-12T10:58:34.060Z,3.00
2018-07-12T11:01:01.614Z,2.53
2018-07-12T11:03:29.242Z,2.80
2018-07-12T11:05:56.846Z,3.33
2018-07-12T11:08:24.416Z,3.03
2018-07-12T11:10:52.014Z,3.23
2018-07-12T11:13:29.926Z,3.10
2018-07-12T11:15:57.442Z,2.83
2018-07-12T11:18:25.105Z,3.50
2018-07-12T11:20:52.648Z,3.00
2018-07-12T11:23:20.233Z,2.90
2018-07-12T11:25:47.773Z,3.27
2018-07-12T11:28:15.385Z,3.17
2018-07-12T11:30:43.027Z,3.60
2018-07-12T11:33:22.137Z,4.17
2018-07-12T11:35:49.734Z,3.40
2018-07-12T11:38:17.299Z,3.53
2018-07-12T11:40:44.969Z,3.93
2018-07-12T11:43:12.515Z,3.53
2018-07-12T11:45:40.042Z,3.70
2018-07-12T11:48:07.617Z,4.43
2018-07-12T11:50:35.148Z,3.67
2018-07-12T11:53:02.750Z,3.80
2018-07-12T11:55:30.328Z,4.20
2018-07-12T11:57:57.836Z,4.77
2018-07-12T12:00:25.446Z,4.40
2018-07-12T12:02:52.969Z,4.07
2018-07-12T12:05:20.730Z,4.40
2018-07-12T12:07:48.290Z,4.73
2018-07-12T12:10:15.893Z,4.17
2018-07-12T12:12:43.435Z,4.37
2018-07-12T12:15:11.023Z,4.30
2018-07-12T12:17:38.614Z,4.10
2018-07-12T12:20:06.169Z,3.97
2018-07-12T12:22:33.753Z,3.57
2018-07-12T12:25:01.314Z,3.87
2018-07-12T12:27:28.901Z,3.40
2018-07-12T12:29:56.513Z,4.30
2018-07-12T12:32:24.099Z,3.40
2018-07-12T12:34:51.665Z,4.00
2018-07-12T12:37:19.386Z,4.20
2018-07-12T12:39:46.949Z,4.47
2018-07-12T12:42:14.546Z,3.67
2018-07-12T12:44:42.090Z,4.03
2018-07-12T12:47:09.691Z,3.73
2018-07-12T12:49:37.322Z,3.30
2018-07-12T12:52:05.010Z,3.70
2018-07-12T12:54:32.567Z,3.50
2018-07-12T12:57:00.143Z,3.87
2018-07-12T12:59:27.674Z,3.70
2018-07-12T13:01:55.288Z,3.80
2018-07-12T13:04:22.830Z,3.70
2018-07-12T13:06:50.461Z,3.47
2018-07-12T13:09:17.979Z,3.60
2018-07-12T13:11:45.548Z,3.70
2018-07-12T13:14:13.285Z,3.60
2018-07-12T13:16:40.808Z,3.43
2018-07-12T13:19:08.425Z,3.80
2018-07-12T13:21:35.962Z,3.90
2018-07-12T13:24:03.605Z,3.77
2018-07-12T13:26:31.138Z,4.17
2018-07-12T13:28:58.681Z,4.00
2018-07-12T13:31:26.294Z,4.33
2018-07-12T13:33:53.875Z,4.20
2018-07-12T13:36:21.476Z,4.33
2018-07-12T13:38:49.076Z,3.63
2018-07-12T13:41:16.672Z,4.20
2018-07-12T13:43:44.205Z,4.30
2018-07-12T13:46:11.811Z,3.60
2018-07-12T13:48:39.361Z,3.80
2018-07-12T13:51:06.993Z,3.90
2018-07-12T13:53:34.656Z,3.53
2018-07-12T13:56:02.180Z,3.63
2018-07-12T13:58:29.821Z,3.37
2018-07-12T14:00:57.397Z,3.83
2018-07-12T14:03:24.999Z,3.73
2018-07-12T14:05:52.543Z,4.60
2018-07-12T14:08:20.315Z,3.73
2018-07-12T14:10:47.909Z,3.77
2018-07-12T14:13:15.430Z,3.60
2018-07-12T14:15:43.038Z,3.47
2018-07-12T14:18:10.568Z,3.70
2018-07-12T14:20:38.157Z,3.90
2018-07-12T14:23:05.789Z,3.80
2018-07-12T14:25:33.323Z,3.40
2018-07-12T14:28:00.916Z,3.80
2018-07-12T14:30:28.491Z,3.30
2018-07-12T14:32:56.006Z,3.70
2018-07-12T14:35:23.572Z,3.40
2018-07-12T14:37:51.243Z,3.90
2018-07-12T14:40:18.989Z,3.20
2018-07-12T14:42:46.558Z,3.30
2018-07-12T14:45:14.170Z,3.60
2018-07-12T14:47:41.750Z,3.37
2018-07-12T14:50:09.347Z,3.30
2018-07-12T14:52:36.966Z,3.23
2018-07-12T14:55:04.501Z,3.37
2018-07-12T14:57:32.208Z,3.40
2018-07-12T14:59:59.728Z,4.10
2018-07-12T15:02:27.428Z,3.23
2018-07-12T15:04:54.961Z,3.20
2018-07-12T15:07:22.548Z,3.70
2018-07-12T15:09:50.223Z,3.40
2018-07-12T15:12:17.817Z,2.80
2018-07-12T15:14:45.363Z,3.33
2018-07-12T15:17:12.986Z,3.13
2018-07-12T15:19:40.510Z,3.30
2018-07-12T15:22:08.206Z,3.47
2018-07-12T15:24:35.743Z,2.93
2018-07-12T15:27:03.373Z,2.60
2018-07-12T15:29:30.981Z,2.90
2018-07-12T15:31:58.477Z,2.60
2018-07-12T15:34:26.050Z,3.07
2018-07-12T15:36:53.603Z,3.30
2018-07-12T15:39:21.245Z,2.70
2018-07-12T15:41:48.775Z,3.10
2018-07-12T15:44:16.381Z,2.63
2018-07-12T15:46:43.999Z,2.80
2018-07-12T15:49:11.634Z,2.90
2018-07-12T15:51:39.187Z,3.50
2018-07-12T15:54:06.744Z,3.70
2018-07-12T15:56:34.340Z,4.17
2018-07-12T15:59:02.023Z,4.53
2018-07-12T16:01:29.658Z,5.10
2018-07-12T16:03:57.238Z,4.47
2018-07-12T16:06:24.813Z,5.00
2018-07-12T16:08:52.540Z,4.73
2018-07-12T16:11:20.095Z,4.90
2018-07-12T16:13:47.976Z,5.07
2018-07-12T16:16:15.930Z,4.70
2018-07-12T16:18:44.960Z,4.77
2018-07-12T16:21:12.855Z,4.80
2018-07-12T16:23:40.469Z,5.10
2018-07-12T16:26:08.106Z,5.03
2018-07-12T16:28:35.696Z,4.80
2018-07-12T16:31:03.305Z,4.73
2018-07-12T16:33:30.841Z,4.50
2018-07-12T16:35:58.500Z,4.77
2018-07-12T16:38:26.250Z,4.43
2018-07-12T16:40:53.827Z,4.40
2018-07-12T16:43:21.550Z,4.87
2018-07-12T16:45:49.097Z,4.70
2018-07-12T16:48:16.692Z,5.00
2018-07-12T16:50:45.238Z,4.57
2018-07-12T16:53:13.018Z,4.80
2018-07-12T16:55:40.548Z,4.80
2018-07-12T16:58:08.092Z,5.37
2018-07-12T17:00:35.754Z,5.40
2018-07-12T17:03:03.319Z,5.10
2018-07-12T17:05:30.918Z,4.47
2018-07-12T17:07:58.474Z,5.00
2018-07-12T17:10:26.056Z,4.50
2018-07-12T17:12:53.690Z,4.40
2018-07-12T17:15:21.254Z,4.70
2018-07-12T17:17:48.860Z,4.10
2018-07-12T17:20:18.608Z,3.60
2018-07-12T17:22:46.232Z,4.00
2018-07-12T17:25:13.819Z,4.00
2018-07-12T17:27:41.591Z,4.37
2018-07-12T17:30:12.275Z,4.30
2018-07-12T17:32:39.838Z,3.83
2018-07-12T17:35:07.442Z,3.87
2018-07-12T17:37:34.973Z,3.57
2018-07-12T17:40:02.564Z,3.40
2018-07-12T17:42:30.204Z,4.00
2018-07-12T17:44:57.753Z,3.70
2018-07-12T17:47:25.350Z,3.80
2018-07-12T17:49:53.006Z,3.87
2018-07-12T17:52:20.613Z,3.53
2018-07-12T17:54:48.172Z,3.90
2018-07-12T17:57:15.750Z,3.63
2018-07-12T17:59:43.334Z,3.50
2018-07-12T18:02:10.915Z,4.77
2018-07-12T18:04:38.553Z,3.80
2018-07-12T18:07:06.154Z,4.30
2018-07-12T18:09:33.712Z,4.40
2018-07-12T18:12:01.317Z,4.20
2018-07-12T18:14:28.881Z,3.60
2018-07-12T18:16:56.452Z,4.07
2018-07-12T18:19:24.486Z,3.40
2018-07-12T18:21:52.118Z,3.57
2018-07-12T18:24:19.622Z,3.77
2018-07-12T18:26:47.229Z,3.77
2018-07-12T18:29:14.784Z,3.90
2018-07-12T18:31:42.300Z,5.10
2018-07-12T18:34:09.873Z,4.17
2018-07-12T18:36:37.406Z,3.70
2018-07-12T18:39:06.684Z,3.90
2018-07-12T18:41:34.262Z,3.80
2018-07-12T18:44:01.832Z,4.20
2018-07-12T18:46:29.429Z,3.70
2018-07-12T18:48:57.094Z,3.70
2018-07-12T18:51:24.641Z,3.80
2018-07-12T18:53:52.291Z,4.07
2018-07-12T18:56:19.862Z,4.37
2018-07-12T18:58:47.521Z,3.97
2018-07-12T19:01:15.051Z,4.30
2018-07-12T19:03:42.668Z,4.03
2018-07-12T19:06:10.178Z,4.10
2018-07-12T19:08:37.789Z,3.83
2018-07-12T19:11:05.373Z,4.13
2018-07-12T19:13:32.966Z,4.30
2018-07-12T19:16:00.509Z,4.60
2018-07-12T19:18:28.354Z,4.50
2018-07-12T19:20:55.954Z,4.87
2018-07-12T19:23:23.569Z,4.97
2018-07-12T19:25:51.120Z,4.87
2018-07-12T19:28:18.694Z,4.80
2018-07-12T19:30:46.249Z,4.37
2018-07-12T19:33:13.833Z,4.90
2018-07-12T19:35:41.370Z,7.23
2018-07-12T19:38:08.955Z,6.90
2018-07-12T19:40:36.505Z,5.50
2018-07-12T19:43:04.122Z,4.53
2018-07-12T19:45:31.674Z,5.20
2018-07-12T19:47:59.185Z,5.00
2018-07-12T19:50:26.792Z,4.60
2018-07-12T19:52:54.405Z,4.67
2018-07-12T19:55:21.967Z,5.13
2018-07-12T19:57:49.641Z,4.93
2018-07-12T20:00:17.372Z,5.10
2018-07-12T20:02:44.937Z,5.30
2018-07-12T20:05:12.470Z,6.07
2018-07-12T20:07:40.182Z,5.60
2018-07-12T20:10:07.817Z,5.50
2018-07-12T20:12:35.417Z,5.93
2018-07-12T20:15:03.091Z,5.93
2018-07-12T20:17:30.743Z,5.60
2018-07-12T20:19:58.349Z,5.57
2018-07-12T20:22:25.908Z,5.60
2018-07-12T20:24:53.501Z,4.60
2018-07-12T20:27:21.035Z,5.90
2018-07-12T20:29:48.632Z,5.33
2018-07-12T20:32:16.491Z,5.47
2018-07-12T20:34:44.036Z,5.70
2018-07-12T20:37:11.747Z,5.70
2018-07-12T20:39:43.879Z,5.50
2018-07-12T20:42:11.469Z,6.70
2018-07-12T20:44:39.032Z,6.40
2018-07-12T20:47:06.655Z,5.77
2018-07-12T20:49:34.250Z,5.23
2018-07-12T20:52:01.899Z,5.53
2018-07-12T20:54:29.481Z,5.63
2018-07-12T20:56:57.093Z,5.23
2018-07-12T20:59:24.757Z,5.37
2018-07-12T21:01:52.437Z,5.30
2018-07-12T21:04:19.991Z,5.70
2018-07-12T21:06:47.526Z,5.50
2018-07-12T21:09:15.119Z,6.27
2018-07-12T21:11:42.653Z,5.70
2018-07-12T21:14:10.236Z,5.53
2018-07-12T21:16:37.842Z,5.67
2018-07-12T21:19:05.584Z,5.50
2018-07-12T21:21:33.125Z,5.60
2018-07-12T21:24:00.744Z,5.40
2018-07-12T21:26:28.416Z,5.90
2018-07-12T21:28:55.965Z,5.40
2018-07-12T21:31:23.495Z,5.40
2018-07-12T21:33:51.109Z,5.10
2018-07-12T21:36:18.699Z,5.30
2018-07-12T21:38:46.243Z,5.30
2018-07-12T21:41:13.818Z,6.10
2018-07-12T21:43:41.431Z,5.20
2018-07-12T21:46:09.006Z,6.00
2018-07-12T21:48:36.589Z,5.80
2018-07-12T21:51:04.145Z,5.13
2018-07-12T21:53:31.732Z,5.50
2018-07-12T21:55:59.289Z,5.53
2018-07-12T21:58:26.851Z,6.23
2018-07-12T22:00:54.447Z,5.47
2018-07-12T22:03:22.026Z,6.70
2018-07-12T22:05:49.591Z,6.53
2018-07-12T22:08:22.141Z,6.80
2018-07-12T22:10:51.131Z,6.40
2018-07-12T22:13:19.348Z,6.40
2018-07-12T22:15:46.877Z,6.57
2018-07-12T22:18:14.508Z,6.13
2018-07-12T22:20:42.116Z,6.30
2018-07-12T22:23:09.702Z,6.70
2018-07-12T22:25:37.564Z,6.40
2018-07-12T22:28:05.272Z,7.23
2018-07-12T22:30:32.873Z,6.83
2018-07-12T22:33:01.612Z,6.57
2018-07-12T22:35:29.141Z,6.90
2018-07-12T22:37:57.801Z,7.20
2018-07-12T22:40:25.465Z,6.83
2018-07-12T22:42:52.995Z,7.50
2018-07-12T22:45:20.681Z,7.93
2018-07-12T22:47:48.303Z,8.10
2018-07-12T22:50:16.213Z,7.33
2018-07-12T22:52:43.829Z,7.37
2018-07-12T22:55:13.369Z,8.60
2018-07-12T22:57:40.922Z,8.40
2018-07-12T23:00:09.272Z,8.70
2018-07-12T23:02:38.737Z,9.30
2018-07-12T23:05:06.649Z,8.67
2018-07-12T23:07:34.265Z,10.00
2018-07-12T23:10:01.857Z,10.43
2018-07-12T23:12:29.510Z,9.70
2018-07-12T23:14:57.076Z,11.20
2018-07-12T23:17:24.673Z,11.10
2018-07-12T23:19:52.276Z,11.13
2018-07-12T23:22:20.279Z,10.90
2018-07-12T23:24:47.974Z,11.67
2018-07-12T23:27:15.529Z,10.87
2018-07-12T23:29:43.066Z,12.80
2018-07-12T23:32:10.598Z,10.93
2018-07-12T23:34:38.246Z,12.30
2018-07-12T23:37:05.897Z,13.67
2018-07-12T23:39:33.609Z,13.10
2018-07-12T23:42:01.255Z,13.37
2018-07-12T23:44:28.804Z,14.80
2018-07-12T23:46:56.397Z,14.30
2018-07-12T23:49:23.919Z,14.73
2018-07-12T23:51:51.530Z,15.00
2018-07-12T23:54:19.058Z,15.10
2018-07-12T23:56:46.715Z,15.53
2018-07-12T23:59:14.578Z,15.60
